sensor_id;sensor_type;location;lat;lon;timestamp;pressure;altitude;pressure_sealevel;temperature;humidity
10460;BME280;54412;51.206;6.888;2022-09-09T00:00:26;100200.88;;;19.32;69.35
10460;BME280;54412;51.206;6.888;2022-09-09T00:03:07;100197.72;;;19.27;68.54
10460;BME280;54412;51.206;6.888;2022-09-09T00:06:06;100195.06;;;19.08;69.65
10460;BME280;54412;51.206;6.888;2022-09-09T00:11:52;100189.59;;;19.19;69.80
10460;BME280;54412;51.206;6.888;2022-09-09T00:14:47;100182.84;;;19.34;69.32
10460;BME280;54412;51.206;6.888;2022-09-09T00:20:21;100187.22;;;19.16;70.02
10460;BME280;54412;51.206;6.888;2022-09-09T00:23:12;100185.50;;;19.24;69.92
10460;BME280;54412;51.206;6.888;2022-09-09T00:25:50;100175.09;;;19.12;70.03
10460;BME280;54412;51.206;6.888;2022-09-09T00:28:23;100176.94;;;19.11;70.10
10460;BME280;54412;51.206;6.888;2022-09-09T00:30:50;100173.97;;;18.95;71.10
10460;BME280;54412;51.206;6.888;2022-09-09T00:33:24;100174.81;;;18.86;71.18
10460;BME280;54412;51.206;6.888;2022-09-09T00:35:55;100177.88;;;18.62;71.96
10460;BME280;54412;51.206;6.888;2022-09-09T00:38:47;100180.97;;;18.58;72.15
10460;BME280;54412;51.206;6.888;2022-09-09T00:41:42;100185.06;;;18.52;72.99
10460;BME280;54412;51.206;6.888;2022-09-09T00:44:32;100185.06;;;18.71;72.41
10460;BME280;54412;51.206;6.888;2022-09-09T00:47:39;100181.72;;;18.89;72.12
10460;BME280;54412;51.206;6.888;2022-09-09T00:50:45;100177.31;;;18.78;72.27
10460;BME280;54412;51.206;6.888;2022-09-09T00:56:25;100178.75;;;18.82;72.86
10460;BME280;54412;51.206;6.888;2022-09-09T01:01:48;100188.06;;;19.07;71.49
10460;BME280;54412;51.206;6.888;2022-09-09T01:04:25;100183.53;;;19.07;71.49
10460;BME280;54412;51.206;6.888;2022-09-09T01:07:06;100184.69;;;19.05;71.92
10460;BME280;54412;51.206;6.888;2022-09-09T01:09:57;100176.75;;;18.74;73.29
10460;BME280;54412;51.206;6.888;2022-09-09T01:12:41;100177.34;;;18.88;73.33
10460;BME280;54412;51.206;6.888;2022-09-09T01:15:15;100174.69;;;19.07;72.33
10460;BME280;54412;51.206;6.888;2022-09-09T01:17:58;100183.81;;;18.95;72.34
10460;BME280;54412;51.206;6.888;2022-09-09T01:20:38;100176.94;;;19.11;71.65
10460;BME280;54412;51.206;6.888;2022-09-09T01:26:19;100183.56;;;18.98;71.40
10460;BME280;54412;51.206;6.888;2022-09-09T01:28:50;100184.81;;;18.94;71.75
10460;BME280;54412;51.206;6.888;2022-09-09T01:31:31;100187.63;;;19.11;70.01
10460;BME280;54412;51.206;6.888;2022-09-09T01:33:58;100184.50;;;18.87;70.35
10460;BME280;54412;51.206;6.888;2022-09-09T01:36:26;100173.97;;;18.86;71.24
10460;BME280;54412;51.206;6.888;2022-09-09T01:38:53;100172.88;;;18.98;70.04
10460;BME280;54412;51.206;6.888;2022-09-09T01:41:19;100171.03;;;19.08;69.42
10460;BME280;54412;51.206;6.888;2022-09-09T01:43:45;100170.28;;;18.67;71.89
10460;BME280;54412;51.206;6.888;2022-09-09T01:46:13;100166.09;;;18.65;73.20
10460;BME280;54412;51.206;6.888;2022-09-09T01:48:40;100163.69;;;18.52;73.36
10460;BME280;54412;51.206;6.888;2022-09-09T01:51:08;100155.69;;;18.81;72.50
10460;BME280;54412;51.206;6.888;2022-09-09T01:53:37;100162.59;;;19.03;71.04
10460;BME280;54412;51.206;6.888;2022-09-09T02:02:07;100168.22;;;18.90;72.34
10460;BME280;54412;51.206;6.888;2022-09-09T02:04:43;100175.22;;;18.62;73.24
10460;BME280;54412;51.206;6.888;2022-09-09T02:09:54;100166.22;;;18.73;73.04
10460;BME280;54412;51.206;6.888;2022-09-09T02:12:25;100172.69;;;18.80;73.44
10460;BME280;54412;51.206;6.888;2022-09-09T02:15:06;100169.31;;;18.68;74.07
10460;BME280;54412;51.206;6.888;2022-09-09T02:17:38;100169.75;;;18.93;73.28
10460;BME280;54412;51.206;6.888;2022-09-09T02:20:13;100171.44;;;18.94;73.25
10460;BME280;54412;51.206;6.888;2022-09-09T02:22:42;100172.13;;;19.05;72.19
10460;BME280;54412;51.206;6.888;2022-09-09T02:25:14;100183.94;;;19.12;71.94
10460;BME280;54412;51.206;6.888;2022-09-09T02:27:45;100179.19;;;18.97;71.77
10460;BME280;54412;51.206;6.888;2022-09-09T02:30:12;100178.75;;;18.92;71.82
10460;BME280;54412;51.206;6.888;2022-09-09T02:32:41;100178.34;;;18.87;71.53
10460;BME280;54412;51.206;6.888;2022-09-09T02:35:14;100174.53;;;18.80;71.25
10460;BME280;54412;51.206;6.888;2022-09-09T02:37:42;100176.38;;;18.79;71.02
10460;BME280;54412;51.206;6.888;2022-09-09T02:40:13;100174.97;;;18.85;70.60
10460;BME280;54412;51.206;6.888;2022-09-09T02:42:43;100183.66;;;18.77;70.69
10460;BME280;54412;51.206;6.888;2022-09-09T02:45:14;100166.94;;;18.75;70.48
10460;BME280;54412;51.206;6.888;2022-09-09T02:49:01;100174.97;;;18.85;69.91
10460;BME280;54412;51.206;6.888;2022-09-09T02:51:37;100175.66;;;18.77;70.81
10460;BME280;54412;51.206;6.888;2022-09-09T02:54:32;100172.00;;;18.68;71.32
10460;BME280;54412;51.206;6.888;2022-09-09T02:59:38;100164.97;;;18.87;69.59
10460;BME280;54412;51.206;6.888;2022-09-09T03:02:04;100173.69;;;18.79;69.53
10460;BME280;54412;51.206;6.888;2022-09-09T03:04:30;100168.03;;;18.53;70.63
10460;BME280;54412;51.206;6.888;2022-09-09T03:06:58;100170.97;;;18.50;71.68
10460;BME280;54412;51.206;6.888;2022-09-09T03:09:24;100163.28;;;18.76;70.22
10460;BME280;54412;51.206;6.888;2022-09-09T03:11:51;100160.47;;;18.77;69.27
10460;BME280;54412;51.206;6.888;2022-09-09T03:14:17;100163.28;;;18.86;68.75
10460;BME280;54412;51.206;6.888;2022-09-09T03:16:47;100155.97;;;18.68;70.09
10460;BME280;54412;51.206;6.888;2022-09-09T03:19:13;100163.56;;;18.83;69.21
10460;BME280;54412;51.206;6.888;2022-09-09T03:21:39;100153.44;;;18.76;69.56
10460;BME280;54412;51.206;6.888;2022-09-09T03:24:05;100154.38;;;18.56;70.93
10460;BME280;54412;51.206;6.888;2022-09-09T03:26:32;100155.13;;;18.87;69.32
10460;BME280;54412;51.206;6.888;2022-09-09T03:28:58;100154.28;;;18.96;68.84
10460;BME280;54412;51.206;6.888;2022-09-09T03:31:26;100146.84;;;18.90;68.77
10460;BME280;54412;51.206;6.888;2022-09-09T03:33:57;100157.94;;;18.86;68.56
10460;BME280;54412;51.206;6.888;2022-09-09T03:36:24;100151.75;;;18.75;69.22
10460;BME280;54412;51.206;6.888;2022-09-09T03:38:52;100153.00;;;18.71;69.40
10460;BME280;54412;51.206;6.888;2022-09-09T03:41:20;100160.06;;;18.72;69.35
10460;BME280;54412;51.206;6.888;2022-09-09T03:43:47;100152.31;;;18.69;69.44
10460;BME280;54412;51.206;6.888;2022-09-09T03:46:13;100154.81;;;18.71;69.45
10460;BME280;54412;51.206;6.888;2022-09-09T03:48:38;100152.88;;;18.92;69.01
10460;BME280;54412;51.206;6.888;2022-09-09T03:51:04;100149.22;;;18.74;69.34
10460;BME280;54412;51.206;6.888;2022-09-09T03:53:30;100151.31;;;18.80;68.73
10460;BME280;54412;51.206;6.888;2022-09-09T03:55:57;100147.53;;;18.73;69.09
10460;BME280;54412;51.206;6.888;2022-09-09T03:58:25;100144.69;;;18.74;69.09
10460;BME280;54412;51.206;6.888;2022-09-09T04:01:07;100153.72;;;18.73;69.21
10460;BME280;54412;51.206;6.888;2022-09-09T04:03:38;100145.53;;;18.65;69.20
10460;BME280;54412;51.206;6.888;2022-09-09T04:06:06;100151.75;;;18.75;69.04
10460;BME280;54412;51.206;6.888;2022-09-09T04:08:33;100157.78;;;18.68;69.31
10460;BME280;54412;51.206;6.888;2022-09-09T04:11:02;100156.53;;;18.72;69.33
10460;BME280;54412;51.206;6.888;2022-09-09T04:13:37;100156.09;;;18.76;69.02
10460;BME280;54412;51.206;6.888;2022-09-09T04:16:04;100154.69;;;18.82;68.47
10460;BME280;54412;51.206;6.888;2022-09-09T04:18:31;100154.84;;;18.61;69.50
10460;BME280;54412;51.206;6.888;2022-09-09T04:20:57;100156.09;;;18.57;69.80
10460;BME280;54412;51.206;6.888;2022-09-09T04:23:26;100157.06;;;18.66;69.40
10460;BME280;54412;51.206;6.888;2022-09-09T04:25:54;100157.50;;;18.61;69.18
10460;BME280;54412;51.206;6.888;2022-09-09T04:28:24;100152.88;;;18.63;69.51
10460;BME280;54412;51.206;6.888;2022-09-09T04:30:51;100151.19;;;18.72;68.83
10460;BME280;54412;51.206;6.888;2022-09-09T04:33:18;100151.88;;;18.84;68.29
10460;BME280;54412;51.206;6.888;2022-09-09T04:35:49;100149.66;;;18.89;68.16
10460;BME280;54412;51.206;6.888;2022-09-09T04:38:16;100149.66;;;18.60;69.11
10460;BME280;54412;51.206;6.888;2022-09-09T04:40:47;100143.44;;;18.59;69.61
10460;BME280;54412;51.206;6.888;2022-09-09T04:43:14;100148.91;;;18.67;68.75
10460;BME280;54412;51.206;6.888;2022-09-09T04:45:41;100151.47;;;18.78;68.94
10460;BME280;54412;51.206;6.888;2022-09-09T04:48:08;100144.13;;;18.71;68.79
10460;BME280;54412;51.206;6.888;2022-09-09T04:50:35;100159.63;;;18.77;69.02
10460;BME280;54412;51.206;6.888;2022-09-09T04:53:02;100155.09;;;18.58;69.92
10460;BME280;54412;51.206;6.888;2022-09-09T04:55:30;100148.91;;;18.96;68.64
10460;BME280;54412;51.206;6.888;2022-09-09T04:57:56;100154.16;;;18.98;68.23
10460;BME280;54412;51.206;6.888;2022-09-09T05:00:26;100154.72;;;18.72;69.69
10460;BME280;54412;51.206;6.888;2022-09-09T05:02:52;100155.81;;;18.60;70.15
10460;BME280;54412;51.206;6.888;2022-09-09T05:05:17;100154.69;;;18.63;70.04
10460;BME280;54412;51.206;6.888;2022-09-09T05:07:44;100158.38;;;18.91;68.44
10460;BME280;54412;51.206;6.888;2022-09-09T05:10:09;100164.00;;;19.07;67.92
10460;BME280;54412;51.206;6.888;2022-09-09T05:12:36;100158.94;;;18.85;68.73
10460;BME280;54412;51.206;6.888;2022-09-09T05:15:01;100159.34;;;18.80;69.05
10460;BME280;54412;51.206;6.888;2022-09-09T05:17:27;100161.03;;;19.00;67.96
10460;BME280;54412;51.206;6.888;2022-09-09T05:19:53;100163.00;;;19.08;67.59
10460;BME280;54412;51.206;6.888;2022-09-09T05:22:20;100164.13;;;19.15;67.52
10460;BME280;54412;51.206;6.888;2022-09-09T05:24:46;100154.97;;;19.08;67.71
10460;BME280;54412;51.206;6.888;2022-09-09T05:27:12;100153.16;;;18.99;67.44
10460;BME280;54412;51.206;6.888;2022-09-09T05:29:38;100148.38;;;19.02;67.55
10460;BME280;54412;51.206;6.888;2022-09-09T05:32:04;100151.91;;;19.03;67.76
10460;BME280;54412;51.206;6.888;2022-09-09T05:34:30;100147.53;;;18.92;67.83
10460;BME280;54412;51.206;6.888;2022-09-09T05:36:56;100147.53;;;18.92;67.90
10460;BME280;54412;51.206;6.888;2022-09-09T05:39:21;100145.56;;;18.94;67.94
10460;BME280;54412;51.206;6.888;2022-09-09T05:41:47;100143.84;;;19.12;67.50
10460;BME280;54412;51.206;6.888;2022-09-09T05:44:12;100134.88;;;18.94;68.40
10460;BME280;54412;51.206;6.888;2022-09-09T05:46:39;100141.50;;;18.90;68.90
10460;BME280;54412;51.206;6.888;2022-09-09T05:49:05;100155.38;;;18.74;69.30
10460;BME280;54412;51.206;6.888;2022-09-09T05:51:31;100148.66;;;18.70;68.87
10460;BME280;54412;51.206;6.888;2022-09-09T05:53:57;100153.41;;;18.57;69.89
10460;BME280;54412;51.206;6.888;2022-09-09T05:56:27;100154.69;;;18.63;70.18
10460;BME280;54412;51.206;6.888;2022-09-09T05:58:55;100159.63;;;18.58;69.73
10460;BME280;54412;51.206;6.888;2022-09-09T06:01:41;100158.06;;;18.74;68.99
10460;BME280;54412;51.206;6.888;2022-09-09T06:04:08;100165.38;;;18.63;70.02
10460;BME280;54412;51.206;6.888;2022-09-09T06:06:37;100157.09;;;18.75;69.54
10460;BME280;54412;51.206;6.888;2022-09-09T06:09:07;100161.19;;;18.80;68.94
10460;BME280;54412;51.206;6.888;2022-09-09T06:11:37;100157.94;;;18.95;68.82
10460;BME280;54412;51.206;6.888;2022-09-09T06:14:04;100169.31;;;18.88;68.77
10460;BME280;54412;51.206;6.888;2022-09-09T06:16:31;100161.06;;;18.91;68.93
10460;BME280;54412;51.206;6.888;2022-09-09T06:19:01;100167.63;;;18.67;69.59
10460;BME280;54412;51.206;6.888;2022-09-09T06:21:36;100156.25;;;18.56;70.48
10460;BME280;54412;51.206;6.888;2022-09-09T06:24:03;100161.03;;;18.81;69.68
10460;BME280;54412;51.206;6.888;2022-09-09T06:26:37;100163.13;;;18.68;70.02
10460;BME280;54412;51.206;6.888;2022-09-09T06:29:06;100162.56;;;18.64;69.95
10460;BME280;54412;51.206;6.888;2022-09-09T06:31:34;100164.13;;;18.67;69.44
10460;BME280;54412;51.206;6.888;2022-09-09T06:34:04;100163.16;;;18.77;69.52
10460;BME280;54412;51.206;6.888;2022-09-09T06:36:33;100171.28;;;18.86;69.26
10460;BME280;54412;51.206;6.888;2022-09-09T06:39:00;100163.72;;;18.91;68.77
10460;BME280;54412;51.206;6.888;2022-09-09T06:41:29;100173.97;;;18.95;68.16
10460;BME280;54412;51.206;6.888;2022-09-09T06:43:56;100171.72;;;18.81;68.69
10460;BME280;54412;51.206;6.888;2022-09-09T06:46:25;100169.75;;;19.02;68.18
10460;BME280;54412;51.206;6.888;2022-09-09T06:48:54;100166.25;;;18.92;68.49
10460;BME280;54412;51.206;6.888;2022-09-09T06:51:23;100173.13;;;19.04;67.34
10460;BME280;54412;51.206;6.888;2022-09-09T06:53:56;100175.53;;;18.88;68.13
10460;BME280;54412;51.206;6.888;2022-09-09T06:56:27;100178.47;;;19.04;67.78
10460;BME280;54412;51.206;6.888;2022-09-09T06:58:56;100178.34;;;19.15;67.34
10460;BME280;54412;51.206;6.888;2022-09-09T07:01:28;100180.72;;;18.99;66.84
10460;BME280;54412;51.206;6.888;2022-09-09T07:03:57;100173.41;;;19.11;66.83
10460;BME280;54412;51.206;6.888;2022-09-09T07:06:45;100179.47;;;18.94;67.21
10460;BME280;54412;51.206;6.888;2022-09-09T07:09:14;100182.72;;;19.07;66.64
10460;BME280;54412;51.206;6.888;2022-09-09T07:11:47;100180.44;;;19.12;66.17
10460;BME280;54412;51.206;6.888;2022-09-09T07:14:14;100180.88;;;19.17;65.38
10460;BME280;54412;51.206;6.888;2022-09-09T07:16:42;100186.06;;;19.28;64.67
10460;BME280;54412;51.206;6.888;2022-09-09T07:19:09;100181.56;;;19.19;65.57
10460;BME280;54412;51.206;6.888;2022-09-09T07:21:35;100182.44;;;19.19;66.50
10460;BME280;54412;51.206;6.888;2022-09-09T07:24:01;100178.34;;;19.25;65.45
10460;BME280;54412;51.206;6.888;2022-09-09T07:26:30;100194.38;;;19.06;65.59
10460;BME280;54412;51.206;6.888;2022-09-09T07:28:57;100192.97;;;19.11;65.34
10460;BME280;54412;51.206;6.888;2022-09-09T07:31:32;100188.75;;;19.18;64.67
10460;BME280;54412;51.206;6.888;2022-09-09T07:33:59;100195.63;;;19.30;65.54
10460;BME280;54412;51.206;6.888;2022-09-09T07:36:30;100193.53;;;19.43;63.94
10460;BME280;54412;51.206;6.888;2022-09-09T07:39:06;100197.72;;;19.65;62.69
10460;BME280;54412;51.206;6.888;2022-09-09T07:41:42;100200.22;;;19.66;62.87
10460;BME280;54412;51.206;6.888;2022-09-09T07:44:18;100206.75;;;19.64;61.70
10460;BME280;54412;51.206;6.888;2022-09-09T07:46:45;100217.06;;;19.96;60.92
10460;BME280;54412;51.206;6.888;2022-09-09T07:49:11;100206.94;;;19.90;60.78
10460;BME280;54412;51.206;6.888;2022-09-09T07:51:40;100223.72;;;19.82;59.05
10460;BME280;54412;51.206;6.888;2022-09-09T07:54:12;100210.78;;;19.68;59.65
10460;BME280;54412;51.206;6.888;2022-09-09T07:56:40;100209.72;;;19.98;59.50
10460;BME280;54412;51.206;6.888;2022-09-09T07:59:07;100206.94;;;19.90;60.48
10460;BME280;54412;51.206;6.888;2022-09-09T08:01:37;100208.78;;;19.89;61.46
10460;BME280;54412;51.206;6.888;2022-09-09T08:04:07;100209.72;;;19.98;60.96
10460;BME280;54412;51.206;6.888;2022-09-09T08:06:38;100214.66;;;20.02;59.49
10460;BME280;54412;51.206;6.888;2022-09-09T08:09:06;100210.59;;;19.98;59.80
10460;BME280;54412;51.206;6.888;2022-09-09T08:11:34;100208.06;;;19.87;60.38
10460;BME280;54412;51.206;6.888;2022-09-09T08:14:02;100218.59;;;19.98;58.29
10460;BME280;54412;51.206;6.888;2022-09-09T08:16:32;100211.00;;;19.94;59.05
10460;BME280;54412;51.206;6.888;2022-09-09T08:18:58;100213.13;;;19.90;59.16
10460;BME280;54412;51.206;6.888;2022-09-09T08:21:28;100210.06;;;19.85;58.80
10460;BME280;54412;51.206;6.888;2022-09-09T08:23:56;100214.84;;;19.91;58.91
10460;BME280;54412;51.206;6.888;2022-09-09T08:26:28;100219.34;;;19.91;58.63
10460;BME280;54412;51.206;6.888;2022-09-09T08:28:57;100217.78;;;19.88;58.52
10460;BME280;54412;51.206;6.888;2022-09-09T08:31:29;100219.63;;;19.88;59.05
10460;BME280;54412;51.206;6.888;2022-09-09T08:33:57;100225.47;;;20.10;57.82
10460;BME280;54412;51.206;6.888;2022-09-09T08:36:28;100212.97;;;19.92;57.52
10460;BME280;54412;51.206;6.888;2022-09-09T08:38:57;100217.53;;;19.82;57.82
10460;BME280;54412;51.206;6.888;2022-09-09T08:41:59;100219.72;;;20.05;57.23
10460;BME280;54412;51.206;6.888;2022-09-09T08:47:21;100216.50;;;20.02;58.10
10460;BME280;54412;51.206;6.888;2022-09-09T08:50:35;100204.63;;;20.04;56.88
10460;BME280;54412;51.206;6.888;2022-09-09T08:53:12;100221.38;;;20.06;56.61
10460;BME280;54412;51.206;6.888;2022-09-09T08:58:32;100226.63;;;19.98;56.38
10460;BME280;54412;51.206;6.888;2022-09-09T09:03:58;100221.34;;;20.16;56.08
10460;BME280;54412;51.206;6.888;2022-09-09T09:07:00;100226.47;;;20.09;54.86
10460;BME280;54412;51.206;6.888;2022-09-09T09:12:27;100218.13;;;20.22;54.07
10460;BME280;54412;51.206;6.888;2022-09-09T09:14:55;100217.59;;;20.18;55.48
10460;BME280;54412;51.206;6.888;2022-09-09T09:17:28;100221.34;;;20.16;53.21
10460;BME280;54412;51.206;6.888;2022-09-09T09:19:57;100226.75;;;20.06;53.31
10460;BME280;54412;51.206;6.888;2022-09-09T09:22:41;100229.81;;;20.21;53.82
10460;BME280;54412;51.206;6.888;2022-09-09T09:25:20;100231.00;;;19.99;53.49
10460;BME280;54412;51.206;6.888;2022-09-09T09:27:59;100238.38;;;19.88;53.46
10460;BME280;54412;51.206;6.888;2022-09-09T09:30:39;100232.97;;;19.97;53.30
10460;BME280;54412;51.206;6.888;2022-09-09T09:33:29;100233.56;;;19.91;53.51
10460;BME280;54412;51.206;6.888;2022-09-09T09:35:58;100227.44;;;20.18;53.37
10460;BME280;54412;51.206;6.888;2022-09-09T09:38:27;100236.72;;;20.23;52.99
10460;BME280;54412;51.206;6.888;2022-09-09T09:40:58;100230.88;;;20.37;53.11
10460;BME280;54412;51.206;6.888;2022-09-09T09:43:36;100225.88;;;20.52;53.14
10460;BME280;54412;51.206;6.888;2022-09-09T09:46:19;100236.06;;;20.66;51.03
10460;BME280;54412;51.206;6.888;2022-09-09T09:49:03;100242.22;;;20.76;50.63
10460;BME280;54412;51.206;6.888;2022-09-09T09:51:32;100240.84;;;20.72;50.82
10460;BME280;54412;51.206;6.888;2022-09-09T09:54:28;100233.56;;;20.64;50.99
10460;BME280;54412;51.206;6.888;2022-09-09T09:56:55;100234.56;;;21.08;50.36
10460;BME280;54412;51.206;6.888;2022-09-09T09:59:35;100231.41;;;21.13;50.66
10460;BME280;54412;51.206;6.888;2022-09-09T10:02:15;100232.69;;;21.09;50.60
10460;BME280;54412;51.206;6.888;2022-09-09T10:04:41;100234.25;;;21.29;49.96
10460;BME280;54412;51.206;6.888;2022-09-09T10:07:19;100237.81;;;21.37;50.23
10460;BME280;54412;51.206;6.888;2022-09-09T10:09:56;100232.94;;;21.33;49.68
10460;BME280;54412;51.206;6.888;2022-09-09T10:12:41;100230.84;;;21.44;49.84
10460;BME280;54412;51.206;6.888;2022-09-09T10:15:32;100223.59;;;21.19;50.11
10460;BME280;54412;51.206;6.888;2022-09-09T10:24:26;100215.69;;;21.35;50.19
10460;BME280;54412;51.206;6.888;2022-09-09T10:30:19;100213.75;;;21.45;50.08
10460;BME280;54412;51.206;6.888;2022-09-09T10:36:33;100220.31;;;21.08;50.92
10460;BME280;54412;51.206;6.888;2022-09-09T10:39:18;100220.81;;;20.94;51.19
10460;BME280;54412;51.206;6.888;2022-09-09T10:42:06;100206.66;;;21.19;51.15
10460;BME280;54412;51.206;6.888;2022-09-09T10:45:17;100197.59;;;21.37;50.91
10460;BME280;54412;51.206;6.888;2022-09-09T10:48:13;100206.81;;;21.00;51.48
10460;BME280;54412;51.206;6.888;2022-09-09T10:50:55;100201.44;;;21.00;51.99
10460;BME280;54412;51.206;6.888;2022-09-09T10:53:59;100198.16;;;21.23;52.25
10460;BME280;54412;51.206;6.888;2022-09-09T10:56:28;100198.38;;;21.12;50.70
10460;BME280;54412;51.206;6.888;2022-09-09T10:59:24;100206.53;;;21.03;50.94
10460;BME280;54412;51.206;6.888;2022-09-09T11:02:07;100189.41;;;21.04;51.48
10460;BME280;54412;51.206;6.888;2022-09-09T11:04:52;100190.09;;;20.88;51.51
10460;BME280;54412;51.206;6.888;2022-09-09T11:10:48;100199.03;;;20.79;51.34
10460;BME280;54412;51.206;6.888;2022-09-09T11:13:39;100191.47;;;20.92;50.88
10460;BME280;54412;51.206;6.888;2022-09-09T11:16:24;100197.78;;;21.01;51.49
10460;BME280;54412;51.206;6.888;2022-09-09T11:19:26;100203.19;;;20.91;50.73
10460;BME280;54412;51.206;6.888;2022-09-09T11:21:55;100196.53;;;20.77;51.24
10460;BME280;54412;51.206;6.888;2022-09-09T11:24:37;100205.84;;;20.91;52.17
10460;BME280;54412;51.206;6.888;2022-09-09T11:27:19;100202.25;;;20.65;53.39
10460;BME280;54412;51.206;6.888;2022-09-09T11:35:59;100213.00;;;20.55;56.59
10460;BME280;54412;51.206;6.888;2022-09-09T11:41:07;100196.88;;;20.65;56.93
10460;BME280;54412;51.206;6.888;2022-09-09T11:43:48;100196.03;;;20.64;57.21
10460;BME280;54412;51.206;6.888;2022-09-09T11:46:20;100204.06;;;21.09;55.89
10460;BME280;54412;51.206;6.888;2022-09-09T11:49:00;100203.38;;;21.07;55.39
10460;BME280;54412;51.206;6.888;2022-09-09T11:51:29;100198.63;;;21.19;56.00
10460;BME280;54412;51.206;6.888;2022-09-09T11:54:44;100192.84;;;21.14;54.12
10460;BME280;54412;51.206;6.888;2022-09-09T11:56:45;100189.72;;;21.18;53.51
10460;BME280;54412;51.206;6.888;2022-09-09T11:59:32;100190.25;;;20.87;52.55
10460;BME280;54412;51.206;6.888;2022-09-09T12:02:12;100194.81;;;20.76;53.98
10460;BME280;54412;51.206;6.888;2022-09-09T12:05:02;100194.22;;;20.83;54.50
10460;BME280;54412;51.206;6.888;2022-09-09T12:07:42;100207.19;;;20.60;54.57
10460;BME280;54412;51.206;6.888;2022-09-09T12:10:30;100202.63;;;20.70;53.46
10460;BME280;54412;51.206;6.888;2022-09-09T12:13:21;100209.06;;;20.77;54.96
10460;BME280;54412;51.206;6.888;2022-09-09T12:15:52;100220.53;;;20.69;56.21
10460;BME280;54412;51.206;6.888;2022-09-09T12:18:36;100221.81;;;20.65;56.62
10460;BME280;54412;51.206;6.888;2022-09-09T12:24:13;100208.00;;;20.70;56.53
10460;BME280;54412;51.206;6.888;2022-09-09T12:26:55;100209.94;;;20.95;56.69
10460;BME280;54412;51.206;6.888;2022-09-09T12:29:44;100204.03;;;21.27;55.21
10460;BME280;54412;51.206;6.888;2022-09-09T12:34:55;100200.59;;;21.34;53.92
10460;BME280;54412;51.206;6.888;2022-09-09T12:37:37;100203.22;;;21.52;53.73
10460;BME280;54412;51.206;6.888;2022-09-09T12:40:20;100200.19;;;21.47;54.18
10460;BME280;54412;51.206;6.888;2022-09-09T12:42:46;100192.84;;;21.74;53.66
10460;BME280;54412;51.206;6.888;2022-09-09T12:45:20;100193.31;;;21.70;53.87
10460;BME280;54412;51.206;6.888;2022-09-09T12:47:59;100186.69;;;21.56;52.91
10460;BME280;54412;51.206;6.888;2022-09-09T12:50:32;100184.09;;;21.47;53.06
10460;BME280;54412;51.206;6.888;2022-09-09T12:53:06;100171.53;;;21.47;53.91
10460;BME280;54412;51.206;6.888;2022-09-09T12:55:38;100173.75;;;21.34;53.95
10460;BME280;54412;51.206;6.888;2022-09-09T12:58:06;100175.19;;;21.46;53.61
10460;BME280;54412;51.206;6.888;2022-09-09T13:00:34;100171.13;;;21.17;53.35
10460;BME280;54412;51.206;6.888;2022-09-09T13:03:13;100201.16;;;21.03;54.50
10460;BME280;54412;51.206;6.888;2022-09-09T13:05:41;100228.22;;;20.28;61.17
10460;BME280;54412;51.206;6.888;2022-09-09T13:08:13;100221.38;;;20.06;65.61
10460;BME280;54412;51.206;6.888;2022-09-09T13:10:55;100191.44;;;20.57;64.97
10460;BME280;54412;51.206;6.888;2022-09-09T13:13:36;100188.88;;;21.18;64.20
10460;BME280;54412;51.206;6.888;2022-09-09T13:16:04;100189.16;;;21.75;65.09
10460;BME280;54412;51.206;6.888;2022-09-09T13:18:36;100191.31;;;21.29;63.05
10460;BME280;54412;51.206;6.888;2022-09-09T13:21:04;100186.75;;;21.04;63.98
10460;BME280;54412;51.206;6.888;2022-09-09T13:23:33;100186.50;;;20.97;63.16
10460;BME280;54412;51.206;6.888;2022-09-09T13:26:04;100185.72;;;20.87;64.07
10460;BME280;54412;51.206;6.888;2022-09-09T13:28:32;100179.00;;;20.83;65.21
10460;BME280;54412;51.206;6.888;2022-09-09T13:31:04;100177.75;;;20.77;65.15
10460;BME280;54412;51.206;6.888;2022-09-09T13:33:37;100167.53;;;20.63;65.33
10460;BME280;54412;51.206;6.888;2022-09-09T13:36:09;100166.66;;;20.90;65.19
10460;BME280;54412;51.206;6.888;2022-09-09T13:38:52;100162.13;;;20.73;66.32
10460;BME280;54412;51.206;6.888;2022-09-09T13:41:22;100169.56;;;20.61;66.00
10460;BME280;54412;51.206;6.888;2022-09-09T13:43:50;100165.59;;;20.83;64.67
10460;BME280;54412;51.206;6.888;2022-09-09T13:46:40;100162.28;;;20.71;64.94
10460;BME280;54412;51.206;6.888;2022-09-09T13:54:14;100151.19;;;21.02;64.47
10460;BME280;54412;51.206;6.888;2022-09-09T13:56:42;100147.81;;;21.00;64.99
10460;BME280;54412;51.206;6.888;2022-09-09T13:59:19;100140.03;;;21.06;63.33
10460;BME280;54412;51.206;6.888;2022-09-09T14:01:46;100142.28;;;20.83;65.23
10460;BME280;54412;51.206;6.888;2022-09-09T14:04:12;100145.06;;;20.74;66.22
10460;BME280;54412;51.206;6.888;2022-09-09T14:06:39;100149.88;;;20.88;66.68
10460;BME280;54412;51.206;6.888;2022-09-09T14:09:07;100146.13;;;20.99;64.02
10460;BME280;54412;51.206;6.888;2022-09-09T14:11:33;100149.38;;;21.02;63.45
10460;BME280;54412;51.206;6.888;2022-09-09T14:13:58;100155.09;;;21.07;63.24
10460;BME280;54412;51.206;6.888;2022-09-09T14:16:26;100154.75;;;20.93;60.74
10460;BME280;54412;51.206;6.888;2022-09-09T14:18:53;100149.50;;;20.83;61.51
10460;BME280;54412;51.206;6.888;2022-09-09T14:21:22;100151.47;;;20.63;59.83
10460;BME280;54412;51.206;6.888;2022-09-09T14:23:48;100157.66;;;20.64;59.36
10460;BME280;54412;51.206;6.888;2022-09-09T14:26:14;100170.78;;;20.85;60.19
10460;BME280;54412;51.206;6.888;2022-09-09T14:28:39;100158.09;;;21.04;59.37
10460;BME280;54412;51.206;6.888;2022-09-09T14:31:06;100158.78;;;21.06;57.43
10460;BME280;54412;51.206;6.888;2022-09-09T14:33:32;100152.25;;;21.09;58.86
10460;BME280;54412;51.206;6.888;2022-09-09T14:36:01;100151.19;;;21.02;59.48